createdAt,value
2019-04-05T00:02:20.072Z,3.67
2019-04-05T00:04:50.468Z,3.30
2019-04-05T00:07:21.745Z,4.15
2019-04-05T00:09:51.928Z,4.37
2019-04-05T00:12:21.905Z,4.17
2019-04-05T00:14:52.698Z,4.12
2019-04-05T00:17:23.864Z,3.90
2019-04-05T00:19:54.095Z,3.57
2019-04-05T00:22:24.238Z,3.87
2019-04-05T00:24:57.290Z,4.17
2019-04-05T00:27:28.515Z,4.50
2019-04-05T00:29:58.664Z,4.13
2019-04-05T00:32:28.673Z,4.47
2019-04-05T00:34:58.916Z,4.77
2019-04-05T00:37:31.448Z,3.85
2019-04-05T00:40:01.552Z,4.17
2019-04-05T00:42:31.599Z,4.07
2019-04-05T00:45:01.804Z,4.30
2019-04-05T00:47:32.976Z,3.50
2019-04-05T00:50:03.808Z,3.87
2019-04-05T00:52:33.946Z,3.67
2019-04-05T00:55:05.328Z,4.00
2019-04-05T00:57:36.523Z,3.50
2019-04-05T01:00:07.804Z,3.27
2019-04-05T01:02:38.484Z,3.20
2019-04-05T01:05:08.976Z,2.87
2019-04-05T01:07:40.379Z,2.95
2019-04-05T01:10:11.128Z,2.63
2019-04-05T01:12:41.981Z,2.50
2019-04-05T01:15:12.481Z,2.65
2019-04-05T01:17:43.721Z,2.40
2019-04-05T01:20:14.641Z,2.30
2019-04-05T01:22:46.593Z,2.47
2019-04-05T01:25:16.798Z,2.90
2019-04-05T01:27:48.579Z,3.37
2019-04-05T01:30:19.082Z,3.83
2019-04-05T01:32:49.354Z,3.75
2019-04-05T01:35:19.614Z,3.70
2019-04-05T01:37:52.569Z,4.07
2019-04-05T01:40:23.253Z,3.17
2019-04-05T01:42:53.671Z,3.00
2019-04-05T01:45:24.090Z,3.10
2019-04-05T01:47:55.184Z,3.07
2019-04-05T01:50:25.841Z,2.95
2019-04-05T01:52:55.921Z,2.10
2019-04-05T01:55:26.134Z,2.17
2019-04-05T01:57:57.419Z,2.37
2019-04-05T02:00:27.596Z,2.07
2019-04-05T02:02:57.932Z,1.70
2019-04-05T02:05:28.318Z,1.97
2019-04-05T02:07:59.649Z,2.23
2019-04-05T02:10:29.924Z,1.90
2019-04-05T02:13:00.102Z,1.93
2019-04-05T02:15:32.608Z,2.13
2019-04-05T02:18:04.088Z,2.20
2019-04-05T02:20:34.259Z,1.83
2019-04-05T02:23:04.451Z,2.05
2019-04-05T02:25:34.650Z,2.00
2019-04-05T02:28:05.719Z,2.20
2019-04-05T02:30:36.064Z,2.37
2019-04-05T02:33:06.704Z,2.40
2019-04-05T02:35:39.042Z,2.37
2019-04-05T02:38:11.409Z,3.27
2019-04-05T02:40:42.957Z,2.90
2019-04-05T02:43:16.182Z,3.37
2019-04-05T02:45:53.314Z,3.13
2019-04-05T02:48:26.705Z,3.00
2019-04-05T02:51:01.754Z,3.15
2019-04-05T02:53:34.415Z,2.98
2019-04-05T02:56:05.772Z,2.23
2019-04-05T02:58:37.056Z,2.67
2019-04-05T03:01:07.748Z,2.70
2019-04-05T03:03:38.298Z,2.77
2019-04-05T03:06:09.974Z,2.27
2019-04-05T03:08:42.302Z,2.37
2019-04-05T03:11:14.388Z,2.33
2019-04-05T03:13:50.472Z,2.30
2019-04-05T03:16:40.210Z,2.62
2019-04-05T03:19:13.640Z,2.30
2019-04-05T03:21:46.863Z,2.58
2019-04-05T03:24:19.840Z,2.57
2019-04-05T03:26:54.034Z,2.47
2019-04-05T03:29:24.694Z,2.30
2019-04-05T03:31:55.065Z,2.40
2019-04-05T03:34:25.863Z,2.30
2019-04-05T03:36:57.082Z,2.00
2019-04-05T03:39:28.805Z,1.93
2019-04-05T03:41:59.291Z,2.02
2019-04-05T03:44:29.795Z,1.70
2019-04-05T03:47:01.135Z,2.25
2019-04-05T03:49:31.593Z,2.47
2019-04-05T03:52:06.812Z,2.42
2019-04-05T03:54:38.077Z,2.23
2019-04-05T03:57:08.791Z,1.95
2019-04-05T03:59:39.707Z,1.95
2019-04-05T04:02:10.835Z,2.02
2019-04-05T04:04:41.897Z,2.00
2019-04-05T04:07:14.021Z,2.10
2019-04-05T04:09:44.123Z,1.90
2019-04-05T04:12:14.700Z,1.67
2019-04-05T04:14:45.338Z,1.80
2019-04-05T04:17:16.912Z,1.80
2019-04-05T04:19:50.532Z,1.85
2019-04-05T04:22:23.489Z,1.57
2019-04-05T04:24:53.682Z,1.80
2019-04-05T04:27:25.306Z,1.87
2019-04-05T04:29:56.263Z,1.87
2019-04-05T04:32:26.737Z,1.90
2019-04-05T04:34:57.422Z,1.83
2019-04-05T04:37:29.574Z,1.90
2019-04-05T04:39:59.766Z,2.30
2019-04-05T04:42:30.454Z,5.93
2019-04-05T04:45:11.416Z,16.57
2019-04-05T04:47:35.845Z,4.62
2019-04-05T04:50:07.755Z,2.75
2019-04-05T04:52:38.191Z,1.57
2019-04-05T04:55:08.756Z,2.10
2019-04-05T04:57:45.794Z,1.57
2019-04-05T05:00:16.464Z,1.83
2019-04-05T05:02:46.922Z,1.87
2019-04-05T05:05:19.074Z,1.67
2019-04-05T05:07:52.154Z,1.95
2019-04-05T05:10:22.734Z,1.87
2019-04-05T05:12:52.957Z,1.85
2019-04-05T05:15:23.199Z,2.23
2019-04-05T05:17:58.870Z,2.10
2019-04-05T05:20:28.090Z,2.37
2019-04-05T05:22:58.706Z,2.20
2019-04-05T05:25:28.985Z,2.20
2019-04-05T05:28:07.008Z,2.13
2019-04-05T05:30:36.953Z,2.45
2019-04-05T05:33:07.563Z,2.20
2019-04-05T05:35:37.835Z,2.30
2019-04-05T05:38:10.895Z,1.80
2019-04-05T05:40:42.122Z,2.00
2019-04-05T05:43:12.200Z,5.57
2019-04-05T05:45:42.260Z,8.63
2019-04-05T05:48:15.170Z,4.23
2019-04-05T05:50:45.344Z,2.77
2019-04-05T05:53:15.665Z,2.50
2019-04-05T05:55:45.626Z,2.40
2019-04-05T05:58:25.365Z,2.50
2019-04-05T06:00:54.946Z,2.80
2019-04-05T06:03:25.116Z,2.02
2019-04-05T06:06:04.350Z,2.40
2019-04-05T06:08:29.096Z,2.40
2019-04-05T06:10:58.395Z,2.00
2019-04-05T06:13:28.585Z,3.70
2019-04-05T06:15:58.647Z,17.17
2019-04-05T06:18:31.313Z,11.80
2019-04-05T06:21:03.469Z,4.87
2019-04-05T06:23:34.266Z,2.37
2019-04-05T06:26:05.178Z,2.15
2019-04-05T06:28:35.313Z,2.53
2019-04-05T06:31:05.902Z,2.20
2019-04-05T06:33:36.544Z,2.05
2019-04-05T06:36:06.636Z,2.45
2019-04-05T06:38:36.818Z,2.60
2019-04-05T06:41:07.821Z,2.27
2019-04-05T06:43:37.954Z,2.15
2019-04-05T06:46:10.811Z,2.40
2019-04-05T06:48:41.028Z,2.30
2019-04-05T06:51:11.572Z,2.52
2019-04-05T06:53:41.898Z,2.40
2019-04-05T06:56:11.898Z,2.52
2019-04-05T06:58:42.063Z,2.83
2019-04-05T07:01:12.115Z,9.23
2019-04-05T07:03:42.760Z,9.65
2019-04-05T07:06:13.311Z,5.92
2019-04-05T07:08:53.153Z,2.40
2019-04-05T07:11:14.963Z,2.50
2019-04-05T07:13:45.042Z,2.20
2019-04-05T07:16:15.087Z,2.35
2019-04-05T07:18:45.866Z,2.25
2019-04-05T07:21:17.472Z,2.10
2019-04-05T07:23:47.803Z,2.30
2019-04-05T07:26:20.979Z,2.70
2019-04-05T07:28:51.190Z,2.55
2019-04-05T07:31:21.812Z,2.35
2019-04-05T07:33:52.551Z,2.70
2019-04-05T07:36:23.599Z,2.70
2019-04-05T07:38:54.251Z,3.30
2019-04-05T07:41:25.882Z,3.00
2019-04-05T07:43:56.590Z,3.08
2019-04-05T07:46:27.153Z,3.12
2019-04-05T07:48:57.921Z,2.75
2019-04-05T07:51:28.535Z,3.00
2019-04-05T07:53:59.271Z,3.22
2019-04-05T07:56:31.132Z,3.10
2019-04-05T07:59:01.755Z,3.45
2019-04-05T08:01:32.393Z,4.83
2019-04-05T08:04:03.178Z,5.90
2019-04-05T08:06:37.667Z,5.65
2019-04-05T08:09:11.065Z,4.70
2019-04-05T08:11:43.939Z,5.05
2019-04-05T08:14:18.163Z,4.97
2019-04-05T08:16:50.273Z,5.53
2019-04-05T08:19:21.015Z,4.97
2019-04-05T08:21:51.653Z,4.12
2019-04-05T08:24:22.295Z,4.40
2019-04-05T08:26:54.124Z,3.80
2019-04-05T08:29:25.007Z,4.45
2019-04-05T08:31:55.720Z,4.50
2019-04-05T08:34:26.358Z,4.03
2019-04-05T08:36:58.098Z,4.30
2019-04-05T08:39:28.752Z,3.92
2019-04-05T08:41:59.480Z,4.28
2019-04-05T08:44:30.224Z,4.42
2019-04-05T08:47:01.863Z,4.00
2019-04-05T08:49:32.618Z,3.65
2019-04-05T08:52:03.129Z,3.92
2019-04-05T08:54:36.616Z,3.60
2019-04-05T08:57:07.356Z,2.80
2019-04-05T08:59:38.111Z,3.35
2019-04-05T09:02:08.726Z,3.20
2019-04-05T09:04:39.374Z,3.90
2019-04-05T09:07:10.999Z,4.25
2019-04-05T09:09:41.655Z,4.10
2019-04-05T09:12:12.331Z,4.45
2019-04-05T09:14:43.057Z,4.35
2019-04-05T09:17:25.582Z,4.25
2019-04-05T09:19:56.361Z,3.90
2019-04-05T09:22:27.039Z,4.28
2019-04-05T09:24:57.808Z,4.22
2019-04-05T09:27:29.410Z,4.90
2019-04-05T09:30:00.067Z,4.30
2019-04-05T09:32:30.717Z,4.97
2019-04-05T09:35:01.445Z,5.20
2019-04-05T09:37:33.158Z,4.83
2019-04-05T09:40:05.095Z,5.03
2019-04-05T09:42:35.748Z,4.75
2019-04-05T09:45:07.663Z,4.85
2019-04-05T09:47:39.276Z,4.85
2019-04-05T09:50:10.736Z,3.55
2019-04-05T09:52:41.452Z,3.75
2019-04-05T09:55:12.227Z,3.85
2019-04-05T09:57:43.907Z,4.10
2019-04-05T10:00:20.582Z,4.00
2019-04-05T10:02:51.101Z,4.20
2019-04-05T10:05:21.793Z,3.70
2019-04-05T10:07:55.193Z,4.15
2019-04-05T10:10:25.463Z,2.98
2019-04-05T10:12:57.295Z,2.80
2019-04-05T10:15:28.069Z,3.50
2019-04-05T10:17:58.764Z,3.10
2019-04-05T10:20:29.469Z,2.67
2019-04-05T10:22:59.996Z,3.00
2019-04-05T10:25:30.708Z,2.37
2019-04-05T10:28:01.375Z,2.72
2019-04-05T10:30:32.187Z,2.45
2019-04-05T10:33:02.809Z,2.45
2019-04-05T10:35:33.468Z,2.02
2019-04-05T10:38:04.209Z,2.60
2019-04-05T10:40:34.970Z,2.72
2019-04-05T10:43:07.629Z,3.40
2019-04-05T10:45:38.277Z,2.90
2019-04-05T10:48:11.179Z,3.08
2019-04-05T10:50:41.848Z,3.15
2019-04-05T10:53:12.500Z,2.62
2019-04-05T10:55:43.370Z,3.22
2019-04-05T10:58:16.159Z,4.03
2019-04-05T11:00:47.007Z,3.90
2019-04-05T11:03:17.631Z,3.60
2019-04-05T11:05:49.408Z,3.60
2019-04-05T11:08:20.385Z,3.40
2019-04-05T11:10:51.031Z,3.40
2019-04-05T11:13:21.637Z,3.12
2019-04-05T11:15:52.272Z,3.80
2019-04-05T11:18:23.082Z,3.90
2019-04-05T11:20:53.695Z,4.25
2019-04-05T11:23:24.217Z,3.92
2019-04-05T11:25:54.926Z,4.25
2019-04-05T11:28:25.522Z,4.35
2019-04-05T11:30:56.228Z,4.30
2019-04-05T11:33:26.814Z,4.12
2019-04-05T11:35:58.062Z,4.08
2019-04-05T11:38:29.522Z,3.98
2019-04-05T11:41:00.651Z,4.35
2019-04-05T11:43:34.084Z,4.45
2019-04-05T11:46:05.010Z,4.10
2019-04-05T11:48:41.812Z,4.85
2019-04-05T11:51:14.475Z,5.03
2019-04-05T11:53:45.320Z,4.97
2019-04-05T11:56:19.742Z,14.87
2019-04-05T11:58:49.602Z,6.37
2019-04-05T12:01:24.629Z,4.62
2019-04-05T12:03:55.246Z,4.37
2019-04-05T12:06:25.848Z,4.33
2019-04-05T12:08:56.480Z,4.17
2019-04-05T12:11:27.204Z,4.60
2019-04-05T12:13:57.873Z,4.20
2019-04-05T12:16:29.659Z,3.60
2019-04-05T12:19:00.251Z,3.25
2019-04-05T12:21:32.617Z,3.77
2019-04-05T12:24:03.454Z,3.20
2019-04-05T12:26:35.261Z,2.87
2019-04-05T12:29:06.060Z,2.75
2019-04-05T12:31:36.695Z,2.52
2019-04-05T12:34:07.468Z,2.50
2019-04-05T12:36:39.185Z,4.87
2019-04-05T12:39:09.704Z,2.80
2019-04-05T12:41:40.939Z,3.22
2019-04-05T12:44:15.125Z,3.60
2019-04-05T12:46:46.280Z,2.87
2019-04-05T12:49:16.924Z,2.75
2019-04-05T12:51:47.803Z,3.10
2019-04-05T12:54:18.320Z,2.52
2019-04-05T12:56:50.191Z,5.75
2019-04-05T12:59:20.885Z,7.58
2019-04-05T13:01:51.648Z,3.50
2019-04-05T13:04:22.181Z,3.30
2019-04-05T13:06:53.703Z,2.62
2019-04-05T13:09:24.703Z,2.95
2019-04-05T13:11:57.274Z,2.60
2019-04-05T13:14:27.952Z,2.92
2019-04-05T13:17:02.632Z,3.05
2019-04-05T13:19:31.949Z,2.70
2019-04-05T13:22:03.498Z,3.37
2019-04-05T13:24:34.200Z,2.98
2019-04-05T13:27:05.445Z,2.80
2019-04-05T13:29:35.948Z,4.67
2019-04-05T13:32:06.556Z,8.28
2019-04-05T13:34:37.142Z,2.47
2019-04-05T13:37:19.539Z,2.17
2019-04-05T13:39:40.200Z,2.22
2019-04-05T13:42:10.912Z,1.95
2019-04-05T13:44:42.593Z,2.65
2019-04-05T13:47:13.366Z,2.42
2019-04-05T13:49:43.890Z,2.60
2019-04-05T13:52:14.535Z,2.37
2019-04-05T13:54:45.253Z,2.30
2019-04-05T13:57:16.194Z,2.20
2019-04-05T13:59:46.799Z,2.10
2019-04-05T14:02:20.549Z,2.20
2019-04-05T14:04:53.301Z,2.22
2019-04-05T14:07:24.535Z,2.00
2019-04-05T14:09:54.235Z,1.85
2019-04-05T14:12:25.867Z,2.40
2019-04-05T14:14:56.373Z,1.82
2019-04-05T14:17:28.100Z,2.12
2019-04-05T14:19:58.636Z,2.02
2019-04-05T14:22:29.375Z,2.02
2019-04-05T14:25:00.077Z,1.90
2019-04-05T14:27:34.796Z,2.60
2019-04-05T14:30:05.306Z,2.20
2019-04-05T14:32:35.948Z,2.17
2019-04-05T14:35:08.369Z,2.45
2019-04-05T14:37:39.083Z,1.80
2019-04-05T14:40:10.292Z,3.60
2019-04-05T14:42:42.599Z,2.67
2019-04-05T14:45:14.236Z,2.60
2019-04-05T14:47:44.877Z,2.70
2019-04-05T14:50:16.226Z,2.10
2019-04-05T14:52:49.463Z,1.92
2019-04-05T14:55:19.169Z,1.90
2019-04-05T14:57:51.011Z,1.87
2019-04-05T15:00:21.715Z,2.05
2019-04-05T15:02:52.340Z,2.30
2019-04-05T15:05:22.850Z,2.17
2019-04-05T15:07:55.062Z,2.10
2019-04-05T15:10:26.229Z,1.85
2019-04-05T15:12:57.114Z,1.90
2019-04-05T15:15:27.633Z,2.10
2019-04-05T15:17:59.255Z,2.52
2019-04-05T15:20:29.903Z,1.90
2019-04-05T15:23:00.610Z,1.98
2019-04-05T15:25:31.145Z,2.52
2019-04-05T15:28:02.991Z,1.80
2019-04-05T15:30:33.529Z,1.90
2019-04-05T15:33:04.691Z,2.30
2019-04-05T15:35:35.275Z,2.37
2019-04-05T15:38:06.943Z,2.60
2019-04-05T15:40:37.575Z,2.20
2019-04-05T15:43:08.420Z,2.00
2019-04-05T15:45:42.581Z,1.65
2019-04-05T15:48:13.252Z,2.33
2019-04-05T15:50:43.786Z,1.90
2019-04-05T15:53:14.410Z,1.57
2019-04-05T15:55:44.933Z,1.65
2019-04-05T15:58:15.691Z,3.20
2019-04-05T16:00:46.462Z,2.42
2019-04-05T16:03:17.515Z,2.10
2019-04-05T16:05:48.368Z,2.35
2019-04-05T16:08:20.057Z,1.87
2019-04-05T16:10:50.596Z,2.67
2019-04-05T16:13:21.320Z,2.70
2019-04-05T16:15:51.863Z,2.80
2019-04-05T16:18:23.491Z,2.33
2019-04-05T16:20:54.054Z,1.90
2019-04-05T16:23:24.790Z,3.17
2019-04-05T16:25:55.304Z,2.85
2019-04-05T16:28:27.138Z,2.02
2019-04-05T16:30:58.760Z,1.82
2019-04-05T16:33:29.387Z,1.95
2019-04-05T16:35:59.914Z,2.17
2019-04-05T16:38:30.561Z,3.02
2019-04-05T16:41:01.198Z,3.30
2019-04-05T16:43:31.915Z,3.75
2019-04-05T16:46:02.557Z,3.37
2019-04-05T16:48:33.337Z,3.30
2019-04-05T16:51:04.045Z,3.40
2019-04-05T16:53:35.078Z,3.87
2019-04-05T16:56:05.833Z,4.10
2019-04-05T16:58:36.644Z,4.00
2019-04-05T17:01:07.333Z,4.45
2019-04-05T17:03:38.071Z,5.37
2019-04-05T17:06:08.632Z,5.42
2019-04-05T17:08:39.350Z,5.28
2019-04-05T17:11:09.912Z,5.05
2019-04-05T17:13:40.563Z,5.28
2019-04-05T17:16:11.073Z,5.75
2019-04-05T17:18:41.823Z,5.17
2019-04-05T17:21:12.634Z,4.75
2019-04-05T17:23:43.375Z,5.42
2019-04-05T17:26:13.912Z,8.35
2019-04-05T17:28:45.619Z,5.62
2019-04-05T17:31:16.158Z,5.03
2019-04-05T17:33:46.965Z,5.20
2019-04-05T17:36:17.522Z,5.00
2019-04-05T17:38:48.159Z,4.87
2019-04-05T17:41:18.802Z,5.10
2019-04-05T17:43:49.647Z,5.22
2019-04-05T17:46:22.451Z,5.00
2019-04-05T17:48:54.400Z,4.97
2019-04-05T17:51:25.225Z,5.03
2019-04-05T17:53:55.988Z,5.97
2019-04-05T17:56:27.155Z,5.60
2019-04-05T17:58:58.244Z,6.10
2019-04-05T18:01:29.064Z,5.90
2019-04-05T18:03:59.706Z,5.50
2019-04-05T18:06:31.491Z,6.50
2019-04-05T18:09:03.470Z,6.85
2019-04-05T18:11:35.444Z,6.28
2019-04-05T18:14:06.104Z,7.78
2019-04-05T18:16:36.804Z,7.47
2019-04-05T18:19:08.001Z,7.97
2019-04-05T18:21:39.103Z,8.68
2019-04-05T18:24:10.968Z,8.05
2019-04-05T18:26:42.119Z,19.55
2019-04-05T18:29:12.915Z,15.00
2019-04-05T18:31:43.464Z,9.95
2019-04-05T18:34:14.100Z,9.18
2019-04-05T18:36:44.814Z,9.45
2019-04-05T18:39:15.563Z,10.10
2019-04-05T18:41:46.117Z,11.65
2019-04-05T18:44:16.796Z,13.43
2019-04-05T18:46:49.500Z,13.75
2019-04-05T18:49:21.347Z,8.65
2019-04-05T18:51:51.908Z,8.10
2019-04-05T18:54:22.526Z,7.92
2019-04-05T18:56:53.652Z,7.58
2019-04-05T18:59:24.454Z,8.25
2019-04-05T19:01:55.090Z,8.15
2019-04-05T19:04:25.964Z,9.38
2019-04-05T19:06:57.714Z,7.80
2019-04-05T19:09:28.390Z,8.03
2019-04-05T19:11:59.110Z,7.87
2019-04-05T19:14:29.774Z,7.45
2019-04-05T19:17:00.845Z,8.18
2019-04-05T19:19:31.601Z,8.25
2019-04-05T19:22:02.250Z,8.40
2019-04-05T19:24:32.520Z,7.90
2019-04-05T19:27:04.292Z,9.10
2019-04-05T19:29:35.238Z,9.05
2019-04-05T19:49:54.242Z,59.88
2019-04-05T19:52:24.886Z,34.98
2019-04-05T19:54:55.549Z,21.37
2019-04-05T19:57:27.306Z,16.77
2019-04-05T19:59:58.131Z,12.63
2019-04-05T20:02:28.786Z,11.63
2019-04-05T20:05:00.694Z,11.12
2019-04-05T20:07:32.810Z,11.78
2019-04-05T20:10:03.985Z,12.10
2019-04-05T20:12:34.870Z,11.57
2019-04-05T20:15:07.419Z,12.00
2019-04-05T20:17:39.686Z,11.75
2019-04-05T20:20:11.014Z,11.68
2019-04-05T20:22:42.108Z,11.00
2019-04-05T20:25:13.131Z,11.83
2019-04-05T20:27:44.961Z,11.35
2019-04-05T20:30:15.886Z,11.40
2019-04-05T20:32:46.527Z,12.63
2019-04-05T20:35:17.213Z,11.70
2019-04-05T20:37:47.797Z,27.87
2019-04-05T20:40:18.455Z,30.57
2019-04-05T20:42:49.047Z,20.12
2019-04-05T20:45:20.011Z,14.43
2019-04-05T20:47:52.666Z,12.47
2019-04-05T20:50:23.345Z,12.13
2019-04-05T20:52:53.897Z,11.90
2019-04-05T20:55:24.643Z,12.82
2019-04-05T20:57:55.822Z,12.70
2019-04-05T21:00:26.630Z,12.35
2019-04-05T21:02:57.168Z,13.08
2019-04-05T21:05:27.827Z,13.62
2019-04-05T21:07:59.543Z,11.88
2019-04-05T21:10:30.303Z,12.03
2019-04-05T21:13:00.927Z,10.63
2019-04-05T21:15:31.627Z,8.95
2019-04-05T21:18:04.539Z,7.80
2019-04-05T21:20:35.286Z,6.30
2019-04-05T21:23:05.838Z,5.90
2019-04-05T21:25:36.563Z,5.50
2019-04-05T21:28:09.327Z,5.03
2019-04-05T21:30:40.145Z,4.62
2019-04-05T21:33:10.679Z,3.90
2019-04-05T21:35:41.413Z,3.62
2019-04-05T21:38:13.071Z,3.47
2019-04-05T21:40:43.825Z,3.05
2019-04-05T21:43:14.359Z,2.92
2019-04-05T21:45:45.008Z,3.22
2019-04-05T21:48:17.527Z,2.60
2019-04-05T21:50:48.275Z,2.40
2019-04-05T21:53:20.311Z,2.72
2019-04-05T21:55:51.064Z,2.92
2019-04-05T21:58:22.721Z,2.62
2019-04-05T22:00:55.072Z,3.40
2019-04-05T22:03:26.479Z,5.72
2019-04-05T22:05:57.282Z,2.40
2019-04-05T22:08:28.995Z,2.10
2019-04-05T22:10:59.715Z,2.30
2019-04-05T22:13:30.225Z,2.12
2019-04-05T22:16:00.856Z,1.80
2019-04-05T22:18:32.592Z,2.05
2019-04-05T22:21:03.298Z,2.17
2019-04-05T22:23:33.933Z,2.00
2019-04-05T22:26:04.669Z,2.17
2019-04-05T22:28:34.626Z,2.10
2019-04-05T22:31:05.308Z,2.05
2019-04-05T22:33:35.952Z,1.82
2019-04-05T22:36:06.692Z,2.25
2019-04-05T22:38:37.221Z,2.00
2019-04-05T22:41:07.874Z,2.22
2019-04-05T22:43:38.591Z,1.85
2019-04-05T22:46:09.203Z,2.05
2019-04-05T22:48:40.672Z,1.95
2019-04-05T22:51:11.314Z,2.20
2019-04-05T22:53:41.965Z,2.00
2019-04-05T22:56:12.687Z,1.85
2019-04-05T22:58:43.223Z,1.92
2019-04-05T23:01:13.909Z,1.60
2019-04-05T23:03:44.434Z,1.98
2019-04-05T23:06:15.117Z,1.70
2019-04-05T23:08:45.659Z,2.10
2019-04-05T23:11:16.380Z,1.87
2019-04-05T23:13:46.980Z,1.85
2019-04-05T23:16:17.625Z,1.77
2019-04-05T23:18:47.627Z,1.90
2019-04-05T23:21:18.239Z,2.05
2019-04-05T23:23:48.306Z,1.82
2019-04-05T23:26:18.942Z,2.12
2019-04-05T23:28:49.479Z,1.90
2019-04-05T23:31:20.256Z,2.20
2019-04-05T23:33:50.760Z,1.72
2019-04-05T23:36:21.401Z,1.72
2019-04-05T23:38:51.922Z,1.70
2019-04-05T23:41:22.661Z,1.60
2019-04-05T23:43:53.201Z,1.50
2019-04-05T23:46:23.944Z,1.50
2019-04-05T23:48:55.449Z,1.42
2019-04-05T23:51:26.246Z,1.35
2019-04-05T23:53:56.856Z,1.50
2019-04-05T23:56:27.494Z,1.50
2019-04-05T23:58:58.147Z,1.50
